Arminair
 
*
Witamy, Gość. Zaloguj się lub zarejestruj. Sierpień 19, 2019, 22:59:55


Zaloguj się podając nazwę użytkownika, hasło i długość sesji


Strony: 1 ... 10 11 [12]   Do dołu
  Drukuj  
Autor Wątek: SP-MAR  (Przeczytany 18985 razy)
0 użytkowników i 1 Gość przegląda ten wątek.
Mariusz M (SP-MAR)
Administrator
*****
Offline Offline

Wiadomości: 123



Zobacz profil
« Odpowiedz #165 : Czerwiec 05, 2013, 20:21:38 »

June 05, 2013

EPWA - LOWI
ARA0719
A320neo

Departure time (UTC).................18:30
Arrival time (UTC)......................20:04
Flight time ...............................1 h 34 min
Cruise altitude............................FL380
Cruise speed..............................0,82 Ma
Passengers................................120
Route (tracker):  EVINA4G EVINA M985 JED M866 BABKO UL856 BAGSI Y703 RTT DCT
                       Not Tracked
METAR: LOWI 051720Z 07010KT 040V110 9999 FEW060 FEW070TCU 19/10 Q1015 NOSIG
Remarks:visual approach procedure rwy 08
« Ostatnia zmiana: Czerwiec 05, 2013, 20:27:29 wysłane przez Mariusz M (SP-MAR) » Zapisane
Mariusz M (SP-MAR)
Administrator
*****
Offline Offline

Wiadomości: 123



Zobacz profil
« Odpowiedz #166 : Czerwiec 07, 2013, 21:22:42 »

June 07, 2013

LOWI-EPWA
ARA0720
A320neo

Departure time (UTC).................19:20
Arrival time (UTC)......................21:03
Flight time ...............................1 h 43 min
Cruise altitude............................FL370
Cruise speed..............................0,82 Ma
Passengers................................128
Route (tracker):  OBEDI2J OBEDI UL603 ELKAT UM985 MEBAN M985 JED M866 LOGDA DCT
METAR: EPWA 071800Z 27006KT 9999 FEW030 21/17 Q1017 NOSIG

« Ostatnia zmiana: Czerwiec 14, 2013, 22:26:33 wysłane przez Mariusz M (SP-MAR) » Zapisane
Mariusz M (SP-MAR)
Administrator
*****
Offline Offline

Wiadomości: 123



Zobacz profil
« Odpowiedz #167 : Czerwiec 14, 2013, 22:23:22 »

June 14, 2013

EPWA - EPWR
ARA0709
ATR 72-500

Departure time (UTC).................20:50
Arrival time (UTC)......................21:53
Flight time ...............................1 h 03 min
Cruise altitude............................FL180
Cruise speed..............................220 KIAS
Passengers................................56
Route (tracker): SOXER4G SOXER N869 AGALU
                       
Zapisane
Mariusz M (SP-MAR)
Administrator
*****
Offline Offline

Wiadomości: 123



Zobacz profil
« Odpowiedz #168 : Czerwiec 15, 2013, 22:34:48 »

June 15, 2013

EPWR - EPWA
ARA0710
ATR 72-500

Departure time (UTC).................20:55
Arrival time (UTC)......................22:08
Flight time ...............................1 h 13 min
Cruise altitude............................FL190
Cruise speed..............................220 KIAS
Passengers................................50
Route (tracker): VAGSA N871 OKENO Q277 AGAVA
METAR: EPWA 152000Z 14005KT 9999 BKN046 18/14 Q1015 NOSIG
Zapisane
Mariusz M (SP-MAR)
Administrator
*****
Offline Offline

Wiadomości: 123



Zobacz profil
« Odpowiedz #169 : Listopad 01, 2013, 19:53:20 »

 Od dnia dzisiejszego można mnie będzie spotkać na wirtualnym niebie FG pod prywatnym callem SP-MAR lub pod barwami mojego nowego "pracodawcy"  jako EUR259   Mrugnięcie
« Ostatnia zmiana: Kwiecień 09, 2017, 21:35:07 wysłane przez Mariusz M (SP-MAR) ARA07 » Zapisane
Strony: 1 ... 10 11 [12]   Do góry
  Drukuj  
 
Skocz do:  

Powered by SMF 1.1.11 | SMF © 2006-2008, Simple Machines LLC | Sitemap




Polityka cookies
Darmowe Fora | Darmowe Forum

carstworosyjskie antinos makeit endercraft 1bs